Terminal Aerodrome Forecast
Issued by NWS

Home | Current Version | Previous Version | Text Only | Print | Product List | Glossary Off
Versions: 1 2 3 4 5 6 7 8 9 10 11 12 13 14 15 16 17 18 19 20 21 22 23 24 25 26 27 28 29 30 31

000
FTUS43 KGRB 201100
TAFRHI
TAF
KRHI 201120Z 2012/2112 21005KT P6SM SCT045 BKN090
     FM201500 20012G19KT P6SM SCT045 SCT090
     FM202300 21007KT P6SM SCT100=

USA.gov is the U.S. government's official web portal to all federal, state and local government web resources and services.